createdAt,value
2022-09-24T00:00:30.121Z,17.4
2022-09-24T00:06:07.794Z,17.4
2022-09-24T00:11:29.163Z,17.4
2022-09-24T00:17:06.729Z,17.4
2022-09-24T00:22:42.786Z,17.4
2022-09-24T00:28:20.216Z,17.4
2022-09-24T00:33:58.204Z,17.4
2022-09-24T00:39:36.269Z,17.4
2022-09-24T00:44:41.873Z,17.3
2022-09-24T00:50:03.659Z,17.3
2022-09-24T00:55:10.752Z,17.3
2022-09-24T01:00:32.127Z,17.3
2022-09-24T01:05:55.063Z,17.3
2022-09-24T01:11:01.446Z,17.3
2022-09-24T01:16:23.418Z,17.3
2022-09-24T01:21:45.522Z,17.3
2022-09-24T01:27:09.246Z,17.3
2022-09-24T01:32:32.558Z,17.3
2022-09-24T01:37:55.253Z,17.2
2022-09-24T01:43:17.076Z,17.2
2022-09-24T01:48:25.329Z,17.2
2022-09-24T01:53:47.649Z,17.2
2022-09-24T01:59:25.371Z,17.2
2022-09-24T02:04:16.754Z,17.2
2022-09-24T02:09:38.912Z,17.2
2022-09-24T02:15:00.640Z,17.2
2022-09-24T02:20:37.526Z,17.1
2022-09-24T02:25:45.061Z,17.1
2022-09-24T02:31:23.083Z,17.1
2022-09-24T02:36:44.560Z,17.1
2022-09-24T02:42:22.369Z,17.1
2022-09-24T02:47:44.952Z,17.1
2022-09-24T02:53:21.482Z,17.1
2022-09-24T02:58:43.631Z,17.1
2022-09-24T03:04:22.316Z,17.1
2022-09-24T03:09:43.299Z,17.1
2022-09-24T03:15:11.047Z,17.1
2022-09-24T03:20:48.159Z,17.1
2022-09-24T03:58:19.249Z,16.9
2022-09-24T04:08:56.110Z,16.9
2022-09-24T04:14:17.044Z,16.9
2022-09-24T04:19:54.208Z,16.9
2022-09-24T04:25:31.325Z,16.9
2022-09-24T04:30:52.876Z,16.9
2022-09-24T04:36:31.328Z,16.9
2022-09-24T04:42:09.051Z,16.9
2022-09-24T04:47:47.099Z,16.9
2022-09-24T04:53:15.451Z,16.9
2022-09-24T04:58:53.481Z,16.9
2022-09-24T05:04:37.120Z,16.8
2022-09-24T05:10:19.639Z,16.8
2022-09-24T05:15:43.225Z,16.9
2022-09-24T05:21:05.644Z,16.8
2022-09-24T05:26:27.626Z,16.8
2022-09-24T05:32:06.153Z,16.8
2022-09-24T05:37:42.652Z,16.8
2022-09-24T05:42:56.181Z,16.8
2022-09-24T05:48:34.744Z,16.8
2022-09-24T05:53:41.265Z,16.8
2022-09-24T05:59:09.184Z,16.8
2022-09-24T06:04:21.283Z,16.8
2022-09-24T06:09:43.617Z,16.8
2022-09-24T06:14:50.862Z,16.8
2022-09-24T06:20:14.102Z,16.8
2022-09-24T06:25:36.340Z,16.8
2022-09-24T06:30:46.673Z,16.8
2022-09-24T06:36:10.418Z,16.8
2022-09-24T06:41:17.729Z,16.8
2022-09-24T06:46:40.046Z,16.8
2022-09-24T06:52:21.466Z,16.8
2022-09-24T06:57:45.692Z,16.8
2022-09-24T07:03:08.331Z,16.8
2022-09-24T07:08:47.485Z,16.8
2022-09-24T07:14:24.284Z,16.8
2022-09-24T07:20:04.634Z,16.8
2022-09-24T07:25:42.889Z,16.8
2022-09-24T07:31:20.338Z,16.8
2022-09-24T07:36:42.545Z,16.8
2022-09-24T07:42:21.181Z,16.8
2022-09-24T07:47:48.327Z,16.8
2022-09-24T07:53:10.009Z,16.8
2022-09-24T07:58:33.063Z,16.8
2022-09-24T08:04:11.402Z,16.8
2022-09-24T08:09:35.657Z,16.8
2022-09-24T08:14:58.427Z,16.8
2022-09-24T08:20:36.367Z,16.8
2022-09-24T08:26:13.825Z,16.8
2022-09-24T08:31:51.582Z,16.8
2022-09-24T08:37:33.295Z,16.8
2022-09-24T08:43:10.862Z,16.8
2022-09-24T08:48:49.633Z,16.8
2022-09-24T08:54:27.335Z,16.8
2022-09-24T08:59:51.617Z,16.8
2022-09-24T09:05:30.691Z,16.8
2022-09-24T09:11:53.600Z,16.9
2022-09-24T09:17:35.236Z,16.9
2022-09-24T09:22:57.084Z,16.9
2022-09-24T09:28:23.895Z,16.9
2022-09-24T09:33:38.828Z,16.9
2022-09-24T09:39:07.534Z,16.9
2022-09-24T09:44:30.242Z,16.9
2022-09-24T09:49:56.200Z,16.9
2022-09-24T09:55:18.506Z,16.9
2022-09-24T10:00:55.585Z,16.9
2022-09-24T10:06:25.207Z,16.9
2022-09-24T10:12:03.246Z,16.9
2022-09-24T10:17:43.644Z,16.9
2022-09-24T10:23:25.815Z,16.9
2022-09-24T10:59:41.411Z,17.1
2022-09-24T11:05:21.702Z,17.1
2022-09-24T11:11:00.891Z,17.1
2022-09-24T11:16:39.167Z,17.1
2022-09-24T11:21:46.186Z,17.1
2022-09-24T11:27:23.909Z,17.1
2022-09-24T11:33:01.924Z,17.1
2022-09-24T11:38:28.578Z,17.1
2022-09-24T11:44:06.528Z,17.1
2022-09-24T11:49:44.092Z,17.2
2022-09-24T11:55:09.556Z,17.2
2022-09-24T12:00:34.544Z,17.2
2022-09-24T12:06:13.128Z,17.3
2022-09-24T12:11:34.735Z,17.3
2022-09-24T12:16:57.020Z,17.3
2022-09-24T12:22:19.432Z,17.3
2022-09-24T12:27:27.197Z,17.3
2022-09-24T12:33:09.790Z,17.3
2022-09-24T12:38:37.319Z,17.4
2022-09-24T12:44:00.171Z,17.3
2022-09-24T12:49:43.384Z,17.3
2022-09-24T12:54:49.951Z,17.4
2022-09-24T13:00:29.380Z,17.4
2022-09-24T13:06:13.464Z,17.4
2022-09-24T13:11:39.975Z,17.4
2022-09-24T13:17:21.502Z,17.4
2022-09-24T13:23:04.244Z,17.4
2022-09-24T13:28:48.792Z,17.5
2022-09-24T13:34:25.927Z,17.5
2022-09-24T13:40:05.026Z,17.6
2022-09-24T13:45:43.704Z,17.6
2022-09-24T13:51:21.704Z,17.6
2022-09-24T13:56:58.945Z,17.6
2022-09-24T14:02:37.813Z,17.6
2022-09-24T14:08:15.504Z,17.6
2022-09-24T14:13:22.221Z,17.8
2022-09-24T14:18:30.077Z,17.8
2022-09-24T14:23:52.672Z,17.8
2022-09-24T14:29:30.250Z,17.8
2022-09-24T14:35:10.436Z,17.8
2022-09-24T14:40:36.178Z,17.8
2022-09-24T14:46:13.833Z,17.8
2022-09-24T14:51:52.054Z,17.8
2022-09-24T14:57:30.773Z,17.8
2022-09-24T15:02:55.344Z,17.8
2022-09-24T15:08:37.956Z,17.8
2022-09-24T15:14:15.992Z,17.8
2022-09-24T15:19:54.038Z,17.8
2022-09-24T15:25:35.280Z,17.8
2022-09-24T15:31:12.683Z,17.8
2022-09-24T15:36:51.192Z,17.9
2022-09-24T15:41:58.747Z,17.9
2022-09-24T15:47:38.480Z,17.9
2022-09-24T15:53:07.668Z,17.8
2022-09-24T15:58:35.094Z,17.9
2022-09-24T16:03:58.561Z,17.9
2022-09-24T16:09:36.445Z,17.9
2022-09-24T16:15:02.446Z,17.9
2022-09-24T16:20:28.531Z,17.9
2022-09-24T16:25:56.938Z,17.9
2022-09-24T16:31:35.647Z,17.9
2022-09-24T16:37:12.932Z,17.9
2022-09-24T16:42:50.958Z,17.9
2022-09-24T16:48:17.984Z,17.9
2022-09-24T16:53:09.825Z,17.9
2022-09-24T16:58:21.589Z,17.9
2022-09-24T17:04:00.720Z,17.9
2022-09-24T17:09:42.934Z,17.8
2022-09-24T17:15:27.964Z,17.8
2022-09-24T17:20:53.774Z,17.9
2022-09-24T17:26:35.660Z,17.9
2022-09-24T17:32:02.118Z,17.8
2022-09-24T17:38:08.588Z,17.8
2022-09-24T17:43:47.003Z,17.8
2022-09-24T17:48:59.119Z,17.8
2022-09-24T17:54:22.794Z,17.8
2022-09-24T18:00:00.363Z,17.8
2022-09-24T18:05:23.266Z,17.8
2022-09-24T18:11:01.034Z,17.8
2022-09-24T18:16:29.344Z,17.8
2022-09-24T18:21:52.128Z,17.8
2022-09-24T18:26:59.122Z,17.8
2022-09-24T18:32:36.753Z,17.8
2022-09-24T18:38:14.859Z,17.8
2022-09-24T18:43:37.513Z,17.8
2022-09-24T18:49:00.683Z,17.8
2022-09-24T18:54:38.626Z,17.8
2022-09-24T19:00:01.818Z,17.8
2022-09-24T19:05:26.109Z,17.8
2022-09-24T19:11:03.917Z,17.8
2022-09-24T19:16:46.397Z,17.8
2022-09-24T19:21:57.518Z,17.8
2022-09-24T19:27:04.437Z,17.8
2022-09-24T19:32:27.819Z,17.8
2022-09-24T19:37:35.911Z,17.7
2022-09-24T19:42:27.724Z,17.8
2022-09-24T19:47:34.712Z,17.8
2022-09-24T19:52:45.991Z,17.7
2022-09-24T19:58:12.810Z,17.7
2022-09-24T20:03:36.011Z,17.7
2022-09-24T20:08:48.784Z,17.7
2022-09-24T20:13:39.460Z,17.7
2022-09-24T20:19:02.534Z,17.7
2022-09-24T20:24:11.858Z,17.7
2022-09-24T20:29:04.998Z,17.7
2022-09-24T20:34:12.457Z,17.7
2022-09-24T20:39:36.981Z,17.7
2022-09-24T20:45:02.499Z,17.6
2022-09-24T20:50:28.418Z,17.7
2022-09-24T20:55:36.932Z,17.6
2022-09-24T21:00:59.057Z,17.6
2022-09-24T21:07:04.586Z,17.6
2022-09-24T21:12:43.040Z,17.6
2022-09-24T21:18:56.076Z,17.6
2022-09-24T21:24:33.767Z,17.6
2022-09-24T21:30:37.203Z,17.6
2022-09-24T21:35:59.670Z,17.6
2022-09-24T21:41:37.991Z,17.6
2022-09-24T21:47:00.147Z,17.6
2022-09-24T21:52:21.819Z,17.6
2022-09-24T21:57:12.462Z,17.6
2022-09-24T22:02:50.617Z,17.6
2022-09-24T22:08:12.637Z,17.6
2022-09-24T22:13:49.743Z,17.5
2022-09-24T22:19:27.511Z,17.6
2022-09-24T22:24:48.872Z,17.5
2022-09-24T22:29:46.608Z,17.5
2022-09-24T22:35:11.540Z,17.5
2022-09-24T22:40:50.960Z,17.5
2022-09-24T22:46:31.270Z,17.5
2022-09-24T22:51:55.380Z,17.5
2022-09-24T22:57:34.817Z,17.5
2022-09-24T23:03:19.995Z,17.4
2022-09-24T23:08:58.042Z,17.4
2022-09-24T23:14:20.840Z,17.4
2022-09-24T23:19:43.523Z,17.4
2022-09-24T23:25:21.576Z,17.4
2022-09-24T23:31:00.140Z,17.4
2022-09-24T23:36:37.188Z,17.4
2022-09-24T23:41:59.274Z,17.4
2022-09-24T23:47:36.809Z,17.4
2022-09-24T23:52:43.253Z,17.4
2022-09-24T23:58:05.082Z,17.4
